< < Back
Terminal Aerodrome Forecast


Current Version              Previous Versions:   1  2  3  4  5  6  7  8  9  

Terminal Aerodrome Forecast

405
FTUS44 KOHX 241100
TAFCSV
TAF
KCSV 241128Z 2412/2512 15006KT P6SM SCT250
     FM241800 18010KT P6SM SCT250
     FM250400 18012G22KT P6SM VCTS SCT050CB BKN100 OVC250
     FM250700 19012G22KT 6SM -TSRA OVC050CB
      TEMPO 2508/2512 2SM -TSRA BKN025CB OVC050=



Latest METAR

899
SAUS70 KWBC 250600 RRE
MTRCSV
METAR KCSV 250553Z AUTO 17005KT 10SM BKN090 19/08 A2983 RMK AO2 SLP081
T01940083 10211 20183 402390050 58019


USA.gov is the U.S. government's official web portal to all federal, state and local government web resources and services.